createdAt,value
2023-02-28T00:03:57.295Z,88.59
2023-02-28T00:08:54.517Z,88.67
2023-02-28T00:13:52.732Z,88.91
2023-02-28T00:18:50.831Z,89.06
2023-02-28T00:23:48.047Z,89.84
2023-02-28T00:28:45.188Z,89.50
2023-02-28T00:33:43.076Z,89.09
2023-02-28T00:38:41.931Z,89.00
2023-02-28T00:43:43.099Z,88.69
2023-02-28T00:48:42.599Z,88.32
2023-02-28T00:53:39.736Z,88.58
2023-02-28T00:58:37.329Z,88.78
2023-02-28T01:03:36.660Z,89.06
2023-02-28T01:08:39.301Z,89.16
2023-02-28T01:13:36.670Z,88.61
2023-02-28T01:18:33.764Z,88.12
2023-02-28T01:23:34.632Z,88.90
2023-02-28T01:28:33.176Z,88.41
2023-02-28T01:33:34.779Z,89.17
2023-02-28T01:38:32.245Z,89.22
2023-02-28T01:43:33.134Z,88.57
2023-02-28T01:48:36.078Z,90.12
2023-02-28T01:53:36.463Z,90.62
2023-02-28T01:58:40.831Z,90.41
2023-02-28T02:08:48.818Z,88.42
2023-02-28T02:14:29.804Z,87.48
2023-02-28T02:20:25.245Z,87.17
2023-02-28T02:25:37.257Z,88.42
2023-02-28T02:30:57.166Z,88.99
2023-02-28T02:36:00.642Z,89.32
2023-02-28T02:41:19.865Z,88.87
2023-02-28T02:46:40.113Z,88.56
2023-02-28T02:51:44.125Z,88.89
2023-02-28T02:56:52.038Z,89.29
2023-02-28T03:02:00.109Z,88.31
2023-02-28T03:07:26.716Z,88.55
2023-02-28T03:13:21.683Z,88.65
2023-02-28T03:18:47.049Z,88.36
2023-02-28T03:38:27.121Z,89.36
2023-02-28T03:43:09.744Z,89.30
2023-02-28T03:49:25.248Z,88.53
2023-02-28T04:54:06.060Z,86.99
2023-02-28T05:05:46.207Z,87.08
2023-02-28T05:10:59.107Z,87.15
2023-02-28T05:16:14.879Z,86.51
2023-02-28T05:55:47.747Z,86.23
2023-02-28T06:02:00.519Z,85.71
2023-02-28T06:19:59.329Z,84.37
2023-02-28T06:25:24.294Z,84.84
2023-02-28T06:30:29.207Z,84.53
2023-02-28T06:35:43.883Z,83.94
2023-02-28T06:40:47.774Z,83.15
2023-02-28T06:46:00.704Z,83.71
2023-02-28T06:51:14.627Z,83.66
2023-02-28T06:56:56.426Z,84.53
2023-02-28T07:02:42.860Z,83.96
2023-02-28T07:09:21.294Z,83.58
2023-02-28T07:26:41.972Z,82.81
2023-02-28T07:32:31.986Z,83.31
2023-02-28T07:37:50.934Z,82.49
2023-02-28T07:48:58.825Z,82.00
2023-02-28T07:55:03.413Z,81.71
2023-02-28T08:00:59.990Z,81.81
2023-02-28T08:06:08.115Z,81.68
2023-02-28T08:11:45.779Z,81.86
2023-02-28T08:16:56.460Z,82.66
2023-02-28T08:22:44.810Z,82.21
2023-02-28T08:28:30.170Z,82.25
2023-02-28T08:33:50.598Z,80.61
2023-02-28T08:38:57.382Z,80.30
2023-02-28T08:44:26.238Z,81.05
2023-02-28T08:49:28.444Z,80.82
2023-02-28T08:54:44.864Z,80.73
2023-02-28T08:59:49.376Z,80.82
2023-02-28T09:05:16.130Z,79.97
2023-02-28T09:10:37.210Z,80.29
2023-02-28T09:16:07.172Z,80.26
2023-02-28T09:21:39.666Z,79.48
2023-02-28T09:32:21.599Z,79.82
2023-02-28T09:37:51.336Z,79.89
2023-02-28T09:43:20.172Z,80.52
2023-02-28T09:48:40.780Z,79.56
2023-02-28T09:54:12.531Z,78.87
2023-02-28T10:00:00.718Z,79.09
2023-02-28T10:05:12.112Z,79.28
2023-02-28T10:16:40.185Z,78.07
2023-02-28T10:22:50.291Z,79.21
2023-02-28T10:35:08.436Z,79.19
2023-02-28T10:53:44.726Z,79.49
2023-02-28T10:59:55.090Z,79.08
2023-02-28T11:11:40.126Z,80.21
2023-02-28T11:17:06.951Z,80.83
2023-02-28T11:22:46.941Z,80.52
2023-02-28T11:29:16.372Z,79.65
2023-02-28T11:54:58.202Z,81.09
2023-02-28T12:32:47.083Z,81.59
2023-02-28T12:38:36.382Z,81.71
2023-02-28T12:44:20.235Z,82.21
2023-02-28T12:49:39.326Z,82.48
2023-02-28T12:55:02.396Z,82.51
2023-02-28T13:00:17.443Z,81.79
2023-02-28T13:06:20.455Z,81.70
2023-02-28T13:11:37.055Z,81.21
2023-02-28T13:23:08.645Z,79.99
2023-02-28T13:34:21.485Z,79.86
2023-02-28T13:39:58.860Z,79.06
2023-02-28T13:51:58.190Z,78.93
2023-02-28T14:04:11.471Z,77.73
2023-02-28T14:09:54.242Z,77.66
2023-02-28T14:15:39.697Z,77.46
2023-02-28T14:21:35.015Z,77.84
2023-02-28T14:27:37.982Z,77.95
2023-02-28T14:57:49.749Z,77.70
2023-02-28T15:04:11.997Z,77.00
2023-02-28T21:20:37.745Z,86.62
2023-02-28T21:25:35.001Z,86.31
2023-02-28T21:30:31.978Z,86.60
2023-02-28T21:35:29.008Z,86.56
2023-02-28T21:40:26.973Z,86.76
2023-02-28T21:45:23.822Z,86.69
2023-02-28T21:50:20.778Z,86.24
2023-02-28T21:55:17.781Z,86.09
2023-02-28T22:00:16.549Z,85.92
2023-02-28T22:05:13.629Z,86.71
2023-02-28T22:10:12.437Z,85.54
2023-02-28T22:15:10.292Z,86.38
2023-02-28T22:20:09.664Z,86.88
2023-02-28T22:25:09.112Z,86.45
2023-02-28T22:30:07.151Z,86.03
2023-02-28T22:35:04.950Z,86.89
2023-02-28T22:40:02.985Z,86.29
2023-02-28T22:45:00.035Z,85.74
2023-02-28T22:50:00.020Z,85.16
2023-02-28T22:54:58.332Z,85.05
2023-02-28T22:59:56.275Z,84.76
2023-02-28T23:04:55.153Z,83.87
2023-02-28T23:09:54.153Z,84.21
2023-02-28T23:14:51.624Z,83.95
2023-02-28T23:19:49.509Z,84.40
2023-02-28T23:24:46.510Z,85.10
2023-02-28T23:29:43.598Z,84.24
2023-02-28T23:34:40.869Z,83.70
2023-02-28T23:39:43.752Z,83.11
2023-02-28T23:44:40.961Z,82.45
2023-02-28T23:49:38.064Z,82.47
2023-02-28T23:54:36.262Z,82.79
2023-02-28T23:59:34.654Z,82.42
